Time;durP1;ratioP1;P1;durP2;ratioP2;P2;SDS_P1;SDS_P2;PMS_P1;PMS_P2;Temp;Humidity;BMP_temperature;BMP_pressure;BME280_temperature;BME280_humidity;BME280_pressure;Samples;Min_cycle;Max_cycle;Signal;HPM_P1;HPM_P2
2023/11/28 00:01:20;;;;;;;38.55;18.23;;;-2.60;99.90;;;;;;5073850;28;20035;-78
2023/11/28 00:04:14;;;;;;;32.45;17.55;;;-2.60;99.90;;;;;;5073050;28;20079;-78
2023/11/28 00:06:39;;;;;;;34.72;19.45;;;-2.50;99.90;;;;;;5074045;28;20021;-78
2023/11/28 00:09:05;;;;;;;38.08;17.30;;;-2.50;99.90;;;;;;5077810;28;20394;-78
2023/11/28 00:11:31;;;;;;;38.55;18.80;;;-2.50;99.90;;;;;;5072611;28;20454;-78
2023/11/28 00:13:57;;;;;;;41.92;19.85;;;-2.50;99.90;;;;;;5072835;28;20071;-74
2023/11/28 00:16:23;;;;;;;35.53;18.08;;;-2.50;99.90;;;;;;5071958;28;20104;-74
2023/11/28 00:18:49;;;;;;;38.75;18.63;;;-2.60;99.90;;;;;;5072675;28;20032;-78
2023/11/28 00:21:14;;;;;;;36.28;19.05;;;-2.60;99.90;;;;;;5072546;28;20399;-78
2023/11/28 00:23:40;;;;;;;41.50;20.52;;;-2.60;99.90;;;;;;5072657;28;20474;-74
2023/11/28 00:26:06;;;;;;;37.38;18.92;;;-2.60;99.90;;;;;;5073727;28;20008;-74
2023/11/28 00:28:32;;;;;;;41.55;19.98;;;-2.60;99.90;;;;;;5073853;28;20033;-74
2023/11/28 00:30:57;;;;;;;35.13;17.67;;;-2.60;99.90;;;;;;5072454;28;20099;-78
2023/11/28 00:33:23;;;;;;;42.30;21.00;;;-2.60;99.90;;;;;;5073387;28;20052;-78
2023/11/28 00:35:49;;;;;;;39.10;18.25;;;-2.60;99.90;;;;;;5072383;28;20013;-74
2023/11/28 00:38:15;;;;;;;42.13;19.73;;;-2.60;99.90;;;;;;5073488;28;20425;-78
2023/11/28 00:40:41;;;;;;;39.30;20.13;;;-2.70;99.90;;;;;;5071282;28;20035;-78
2023/11/28 00:43:07;;;;;;;43.95;22.63;;;-2.60;99.90;;;;;;5072166;28;20565;-78
2023/11/28 00:45:33;;;;;;;38.72;19.88;;;-2.60;99.90;;;;;;5072951;28;20017;-78
2023/11/28 00:47:59;;;;;;;44.20;21.75;;;-2.60;99.90;;;;;;5073478;28;20107;-78
2023/11/28 00:50:24;;;;;;;38.20;20.63;;;-2.70;99.90;;;;;;5071961;28;20482;-74
2023/11/28 00:52:50;;;;;;;50.95;22.75;;;-2.70;99.90;;;;;;5072038;28;20027;-78
2023/11/28 00:55:16;;;;;;;46.95;23.80;;;-2.70;99.90;;;;;;5071677;28;20385;-78
2023/11/28 00:57:44;;;;;;;40.47;23.63;;;-2.70;99.90;;;;;;5072291;28;20382;-74
2023/11/28 01:00:11;;;;;;;48.83;25.15;;;-2.70;99.90;;;;;;5067482;28;20020;-79
2023/11/28 01:02:37;;;;;;;53.92;27.42;;;-2.70;99.90;;;;;;5073161;28;20021;-78
2023/11/28 01:05:04;;;;;;;50.63;25.98;;;-2.70;99.90;;;;;;5072919;28;20016;-74
2023/11/28 01:07:30;;;;;;;49.42;25.38;;;-2.70;99.90;;;;;;5071792;28;20031;-78
2023/11/28 01:09:56;;;;;;;44.20;23.92;;;-2.70;99.90;;;;;;5061413;28;20021;-78
2023/11/28 01:12:22;;;;;;;45.72;23.70;;;-2.70;99.90;;;;;;5071564;28;20012;-74
2023/11/28 01:14:48;;;;;;;50.67;25.58;;;-2.70;99.90;;;;;;5068157;28;20111;-73
2023/11/28 01:17:14;;;;;;;47.28;24.30;;;-2.70;99.90;;;;;;5072908;28;20028;-74
2023/11/28 01:19:39;;;;;;;50.33;23.92;;;-2.70;99.90;;;;;;5071440;28;20028;-78
2023/11/28 01:22:11;;;;;;;48.25;25.08;;;-2.70;99.90;;;;;;5071515;28;20016;-78
2023/11/28 01:24:37;;;;;;;46.85;23.55;;;-2.80;99.90;;;;;;5072172;28;20020;-75
2023/11/28 01:27:04;;;;;;;44.22;22.50;;;-2.70;99.90;;;;;;5071415;28;20119;-74
2023/11/28 01:29:30;;;;;;;53.55;23.70;;;-2.80;99.90;;;;;;5072623;28;20024;-78
2023/11/28 01:31:56;;;;;;;48.38;23.40;;;-2.80;99.90;;;;;;5071291;28;20492;-78
2023/11/28 01:34:21;;;;;;;50.60;24.73;;;-2.80;99.90;;;;;;5071336;28;20025;-78
2023/11/28 01:36:48;;;;;;;47.83;24.05;;;-2.80;99.90;;;;;;5071446;28;20017;-78
2023/11/28 01:39:14;;;;;;;46.50;23.05;;;-2.80;99.90;;;;;;5070740;28;20044;-78
2023/11/28 01:41:40;;;;;;;49.40;24.48;;;-2.80;99.90;;;;;;5071230;28;20081;-78
2023/11/28 01:44:06;;;;;;;52.15;24.25;;;-2.80;99.90;;;;;;5072618;28;20035;-78
2023/11/28 01:46:34;;;;;;;49.65;24.83;;;-2.80;99.90;;;;;;5072757;28;20017;-78
2023/11/28 01:49:00;;;;;;;59.08;26.50;;;-2.80;99.90;;;;;;5072659;28;20016;-78
2023/11/28 01:51:26;;;;;;;56.55;25.60;;;-2.90;99.90;;;;;;5071096;28;20013;-74
2023/11/28 01:53:56;;;;;;;58.63;25.45;;;-2.90;99.90;;;;;;5070987;28;20104;-74
2023/11/28 01:56:23;;;;;;;47.30;26.35;;;-2.90;99.90;;;;;;5070915;28;20485;-74
2023/11/28 01:58:49;;;;;;;48.50;25.98;;;-2.90;99.90;;;;;;5071205;28;20043;-78
2023/11/28 02:01:16;;;;;;;52.65;27.60;;;-2.90;99.90;;;;;;5072085;28;20029;-75
2023/11/28 02:03:42;;;;;;;50.22;24.88;;;-2.90;99.90;;;;;;5071088;28;20025;-74
2023/11/28 02:06:09;;;;;;;54.47;27.15;;;-2.90;99.90;;;;;;5071934;28;20039;-74
2023/11/28 02:08:35;;;;;;;57.45;25.80;;;-2.80;99.90;;;;;;5072661;28;20078;-74
2023/11/28 02:11:02;;;;;;;56.88;27.65;;;-2.90;99.90;;;;;;5072113;28;20017;-78
2023/11/28 02:13:29;;;;;;;53.60;26.48;;;-2.90;99.90;;;;;;5072452;28;20112;-74
2023/11/28 02:15:55;;;;;;;55.92;25.25;;;-2.90;99.90;;;;;;5070966;28;20107;-78
2023/11/28 02:18:21;;;;;;;55.47;27.95;;;-2.90;99.90;;;;;;5071036;28;20127;-74
2023/11/28 02:20:46;;;;;;;58.40;26.25;;;-2.90;99.90;;;;;;5072110;28;20032;-74
2023/11/28 02:23:12;;;;;;;56.22;26.80;;;-2.90;99.90;;;;;;5070798;28;20020;-78
2023/11/28 02:25:47;;;;;;;54.05;25.75;;;-2.90;99.90;;;;;;5059628;28;20363;-78
2023/11/28 02:28:21;;;;;;;52.10;24.85;;;-2.90;99.90;;;;;;5071798;28;20544;-74
2023/11/28 02:30:54;;;;;;;58.22;28.55;;;-2.90;99.90;;;;;;5069258;28;20063;-74
2023/11/28 02:33:20;;;;;;;51.90;25.98;;;-2.90;99.90;;;;;;5059231;28;20053;-74
2023/11/28 02:35:46;;;;;;;58.03;27.70;;;-2.90;99.90;;;;;;5072078;28;20107;-78
2023/11/28 02:38:13;;;;;;;54.60;26.85;;;-2.90;99.90;;;;;;5070392;28;20103;-74
2023/11/28 02:40:38;;;;;;;48.25;26.40;;;-2.90;99.90;;;;;;5070585;28;20111;-74
2023/11/28 02:43:04;;;;;;;52.40;28.33;;;-2.90;99.90;;;;;;5070496;28;20509;-74
2023/11/28 02:45:30;;;;;;;48.42;27.40;;;-2.90;99.90;;;;;;5071859;28;20036;-78
2023/11/28 02:47:55;;;;;;;54.75;27.20;;;-2.90;99.90;;;;;;5071943;28;20020;-74
2023/11/28 02:50:21;;;;;;;53.88;26.33;;;-2.90;99.90;;;;;;5061966;28;20032;-74
2023/11/28 02:52:47;;;;;;;55.50;25.80;;;-2.90;99.90;;;;;;5070498;28;20020;-78
2023/11/28 02:55:12;;;;;;;53.20;25.95;;;-2.90;99.90;;;;;;5070659;28;20474;-78
2023/11/28 02:57:38;;;;;;;49.88;26.75;;;-2.90;99.90;;;;;;5071895;28;20028;-78
2023/11/28 03:00:07;;;;;;;49.53;26.88;;;-2.90;99.90;;;;;;5070606;28;20486;-74
2023/11/28 03:02:35;;;;;;;58.60;29.48;;;-2.90;99.90;;;;;;5070647;28;20016;-81
2023/11/28 03:05:02;;;;;;;53.25;27.33;;;-2.90;99.90;;;;;;5071645;28;20095;-76
2023/11/28 03:07:28;;;;;;;48.72;25.80;;;-2.90;99.90;;;;;;5075400;28;20031;-75
2023/11/28 03:09:54;;;;;;;53.47;26.77;;;-3.00;99.90;;;;;;5075211;28;20100;-74
2023/11/28 03:12:19;;;;;;;52.90;25.92;;;-3.00;99.90;;;;;;5073952;28;20021;-78
2023/11/28 03:14:45;;;;;;;50.70;27.60;;;-3.00;99.90;;;;;;5075244;28;20029;-74
2023/11/28 03:17:11;;;;;;;51.55;26.73;;;-3.00;99.90;;;;;;5074941;28;20035;-78
2023/11/28 03:19:36;;;;;;;54.35;27.00;;;-3.00;99.90;;;;;;5074784;28;20032;-74
2023/11/28 03:22:02;;;;;;;65.00;31.13;;;-3.00;99.90;;;;;;5074932;28;20028;-78
2023/11/28 03:24:28;;;;;;;59.70;29.98;;;-3.00;99.90;;;;;;5074972;28;20028;-78
2023/11/28 03:26:54;;;;;;;55.70;31.50;;;-3.00;99.90;;;;;;5075062;28;20481;-78
2023/11/28 03:29:20;;;;;;;61.88;30.23;;;-3.00;99.90;;;;;;5074800;28;20028;-78
2023/11/28 03:31:46;;;;;;;54.22;28.20;;;-3.00;99.90;;;;;;5073545;28;20040;-74
2023/11/28 03:34:12;;;;;;;52.40;25.65;;;-3.00;99.90;;;;;;5073176;28;20024;-74
2023/11/28 03:36:38;;;;;;;58.25;26.02;;;-3.00;99.90;;;;;;5074874;28;20021;-78
2023/11/28 03:39:03;;;;;;;55.28;26.98;;;-3.10;99.90;;;;;;5074152;28;20039;-78
2023/11/28 03:41:29;;;;;;;52.80;28.70;;;-3.00;99.90;;;;;;5073467;28;20132;-74
2023/11/28 03:43:55;;;;;;;60.80;30.10;;;-3.10;99.90;;;;;;5073239;28;20017;-73
2023/11/28 03:46:21;;;;;;;58.05;28.63;;;-3.10;99.90;;;;;;5073339;28;20025;-74
2023/11/28 03:48:46;;;;;;;64.57;31.48;;;-3.10;99.90;;;;;;5074163;28;20012;-74
2023/11/28 03:51:12;;;;;;;58.90;29.20;;;-3.10;99.90;;;;;;5065827;28;20024;-74
2023/11/28 03:53:38;;;;;;;71.88;29.88;;;-3.10;99.90;;;;;;5071302;28;20027;-78
2023/11/28 03:56:08;;;;;;;73.57;32.88;;;-3.10;99.90;;;;;;5073160;28;20073;-78
2023/11/28 03:58:34;;;;;;;59.80;29.98;;;-3.10;99.90;;;;;;5071053;28;20031;-78
2023/11/28 04:01:00;;;;;;;52.22;28.02;;;-3.10;99.90;;;;;;5073826;28;20032;-78
2023/11/28 04:03:28;;;;;;;58.30;28.23;;;-3.00;99.90;;;;;;5067686;28;20062;-76
2023/11/28 04:05:57;;;;;;;60.97;30.33;;;-3.10;99.90;;;;;;5070329;28;20074;-79
2023/11/28 04:08:22;;;;;;;65.82;32.13;;;-3.10;99.90;;;;;;5069697;28;20020;-78
2023/11/28 04:10:48;;;;;;;64.22;32.33;;;-3.00;99.90;;;;;;5074131;28;20025;-74
2023/11/28 04:13:14;;;;;;;57.33;28.20;;;-3.10;99.90;;;;;;5072666;28;20021;-78
2023/11/28 04:15:40;;;;;;;55.08;29.45;;;-3.10;99.90;;;;;;5074140;28;20474;-74
2023/11/28 04:18:06;;;;;;;60.22;30.40;;;-3.10;99.90;;;;;;5072722;28;20500;-75
2023/11/28 04:20:32;;;;;;;52.13;28.85;;;-3.10;99.90;;;;;;5072567;28;20108;-78
2023/11/28 04:22:57;;;;;;;63.17;29.35;;;-3.10;99.90;;;;;;5073937;28;20103;-79
2023/11/28 04:25:23;;;;;;;54.70;26.27;;;-3.20;99.90;;;;;;5072467;28;20025;-74
2023/11/28 04:27:49;;;;;;;60.95;27.67;;;-3.20;99.90;;;;;;5074040;28;20024;-74
2023/11/28 04:30:15;;;;;;;60.72;28.80;;;-3.20;99.90;;;;;;5071687;28;20474;-74
2023/11/28 04:32:41;;;;;;;53.15;24.98;;;-3.20;99.90;;;;;;5072250;28;20082;-74
2023/11/28 04:35:07;;;;;;;55.10;27.75;;;-3.20;99.90;;;;;;5072607;28;20052;-74
2023/11/28 04:37:32;;;;;;;59.55;27.38;;;-3.20;99.90;;;;;;5072079;28;20363;-74
2023/11/28 04:39:58;;;;;;;53.70;24.58;;;-3.20;99.90;;;;;;5072249;28;20043;-74
2023/11/28 04:42:24;;;;;;;54.88;28.17;;;-3.20;99.90;;;;;;5073514;28;20046;-74
2023/11/28 04:44:50;;;;;;;57.50;28.50;;;-3.20;99.90;;;;;;5073351;28;20075;-74
2023/11/28 04:47:16;;;;;;;51.58;27.08;;;-3.20;99.90;;;;;;5072213;28;20100;-73
2023/11/28 04:49:42;;;;;;;56.15;29.90;;;-3.20;99.90;;;;;;5073546;28;20024;-78
2023/11/28 04:52:08;;;;;;;61.63;29.83;;;-3.20;99.90;;;;;;5071964;28;20024;-78
2023/11/28 04:54:34;;;;;;;49.58;24.83;;;-3.20;99.90;;;;;;5072107;28;20024;-73
2023/11/28 04:57:00;;;;;;;50.47;23.08;;;-3.30;99.90;;;;;;5071903;28;20012;-74
2023/11/28 04:59:26;;;;;;;54.53;26.00;;;-3.30;99.90;;;;;;5071889;28;20444;-76
2023/11/28 05:01:51;;;;;;;55.38;24.80;;;-3.30;99.90;;;;;;5069790;28;20013;-78
2023/11/28 05:04:17;;;;;;;46.42;22.33;;;-3.40;99.90;;;;;;5073267;28;20060;-79
2023/11/28 05:06:43;;;;;;;51.72;26.02;;;-3.30;99.90;;;;;;5072650;28;20017;-78
2023/11/28 05:09:09;;;;;;;58.30;29.10;;;-3.30;99.90;;;;;;5070493;28;20559;-78
2023/11/28 05:11:34;;;;;;;55.15;25.23;;;-3.30;99.90;;;;;;5072512;28;20024;-74
2023/11/28 05:14:00;;;;;;;57.20;26.05;;;-3.30;99.90;;;;;;5071325;28;20027;-81
2023/11/28 05:16:26;;;;;;;56.40;25.55;;;-3.30;99.90;;;;;;5067475;28;20058;-78
2023/11/28 05:18:52;;;;;;;47.72;24.77;;;-3.30;99.90;;;;;;5071486;28;20024;-78
2023/11/28 05:21:18;;;;;;;51.33;25.95;;;-3.30;99.90;;;;;;5071326;28;20028;-78
2023/11/28 05:23:44;;;;;;;53.67;26.17;;;-3.40;99.90;;;;;;5071531;28;20027;-77
2023/11/28 05:26:10;;;;;;;48.65;23.30;;;-3.30;99.90;;;;;;5072161;28;20028;-77
2023/11/28 05:28:35;;;;;;;52.83;24.52;;;-3.30;99.90;;;;;;5070704;28;20073;-78
2023/11/28 05:31:01;;;;;;;49.70;23.65;;;-3.30;99.90;;;;;;5070181;28;20028;-78
2023/11/28 05:33:27;;;;;;;48.65;22.63;;;-3.30;99.90;;;;;;5070549;28;20044;-78
2023/11/28 05:35:52;;;;;;;51.03;24.88;;;-3.30;99.90;;;;;;5072426;28;20012;-78
2023/11/28 05:38:18;;;;;;;38.00;21.05;;;-3.30;99.90;;;;;;5071231;28;20024;-78
2023/11/28 05:40:43;;;;;;;46.25;26.23;;;-3.30;99.90;;;;;;5072499;28;20033;-78
2023/11/28 05:43:10;;;;;;;50.15;22.90;;;-3.30;99.90;;;;;;5070676;28;20062;-78
2023/11/28 05:45:36;;;;;;;47.95;25.08;;;-3.20;99.90;;;;;;5073404;28;20119;-78
2023/11/28 05:48:02;;;;;;;48.10;21.00;;;-3.20;99.90;;;;;;5071115;28;20142;-78
2023/11/28 05:50:28;;;;;;;58.55;27.77;;;-3.20;99.90;;;;;;5071716;28;20021;-79
2023/11/28 05:52:54;;;;;;;51.00;24.98;;;-3.20;99.90;;;;;;5071272;28;20028;-78
2023/11/28 05:55:21;;;;;;;40.55;21.02;;;-3.20;99.90;;;;;;5072332;28;20508;-78
2023/11/28 05:57:48;;;;;;;46.60;23.08;;;-3.20;99.90;;;;;;5071518;28;20068;-78
2023/11/28 06:00:14;;;;;;;42.33;20.17;;;-3.20;99.90;;;;;;5070717;28;20067;-78
2023/11/28 06:02:40;;;;;;;54.15;24.52;;;-3.20;99.90;;;;;;5068947;28;20016;-75
2023/11/28 06:05:07;;;;;;;48.55;23.92;;;-3.20;99.90;;;;;;5068954;28;20484;-75
2023/11/28 06:07:33;;;;;;;51.45;24.60;;;-3.20;99.90;;;;;;5064856;28;20052;-74
2023/11/28 06:09:58;;;;;;;46.10;23.90;;;-3.20;99.90;;;;;;5070925;28;20052;-74
2023/11/28 06:12:24;;;;;;;56.33;25.05;;;-3.20;99.90;;;;;;5070612;28;20028;-74
2023/11/28 06:14:52;;;;;;;47.88;23.42;;;-3.20;99.90;;;;;;5070218;28;20020;-74
2023/11/28 06:17:18;;;;;;;53.47;23.48;;;-3.20;99.90;;;;;;5069206;28;20098;-75
2023/11/28 06:19:43;;;;;;;54.78;26.33;;;-3.20;99.90;;;;;;5069535;28;20082;-74
2023/11/28 06:22:09;;;;;;;51.67;22.65;;;-3.20;99.90;;;;;;5069543;28;20028;-74
2023/11/28 06:24:37;;;;;;;51.30;24.15;;;-3.20;99.90;;;;;;5068683;28;20025;-74
2023/11/28 06:27:05;;;;;;;46.08;21.55;;;-3.20;99.90;;;;;;5071802;28;20021;-74
2023/11/28 06:29:32;;;;;;;44.55;21.85;;;-3.20;99.90;;;;;;5069461;28;20028;-74
2023/11/28 06:31:59;;;;;;;46.25;21.75;;;-3.10;99.90;;;;;;5069303;28;20043;-74
2023/11/28 06:34:31;;;;;;;48.58;22.50;;;-3.10;99.90;;;;;;5071255;28;20024;-75
2023/11/28 06:36:59;;;;;;;43.92;22.20;;;-3.10;99.90;;;;;;5070573;28;20021;-75
2023/11/28 06:39:26;;;;;;;48.55;22.95;;;-3.10;99.90;;;;;;5070902;28;20032;-74
2023/11/28 06:41:52;;;;;;;51.03;22.63;;;-3.10;99.90;;;;;;5074667;28;20020;-74
2023/11/28 06:44:19;;;;;;;39.47;20.05;;;-3.10;99.90;;;;;;5067572;28;20017;-73
2023/11/28 06:46:48;;;;;;;45.88;21.67;;;-3.10;99.90;;;;;;5072217;28;20028;-74
2023/11/28 06:49:17;;;;;;;45.75;21.73;;;-3.10;99.90;;;;;;5070144;28;20021;-74
2023/11/28 06:51:42;;;;;;;43.45;22.17;;;-3.00;99.90;;;;;;5070679;28;20026;-74
2023/11/28 06:54:12;;;;;;;41.30;22.40;;;-3.00;99.90;;;;;;5074270;28;20116;-74
2023/11/28 06:56:38;;;;;;;47.88;24.08;;;-3.00;99.90;;;;;;5072316;28;20023;-74
2023/11/28 06:59:04;;;;;;;46.58;22.83;;;-3.00;99.90;;;;;;5070958;28;20539;-74
2023/11/28 07:01:30;;;;;;;43.28;21.70;;;-3.00;99.90;;;;;;5070222;28;20025;-74
2023/11/28 07:03:55;;;;;;;45.72;20.60;;;-2.90;99.90;;;;;;5074348;28;20025;-75
2023/11/28 07:06:21;;;;;;;44.58;20.80;;;-2.90;99.90;;;;;;5073123;28;20028;-74
2023/11/28 07:08:49;;;;;;;38.58;19.33;;;-2.90;99.90;;;;;;5065107;28;20115;-74
2023/11/28 07:11:19;;;;;;;47.60;19.00;;;-2.90;99.90;;;;;;5072896;28;20036;-74
2023/11/28 07:13:48;;;;;;;39.10;19.90;;;-2.90;99.90;;;;;;5070878;28;20063;-75
2023/11/28 07:16:17;;;;;;;38.10;21.40;;;-2.90;99.90;;;;;;5057584;28;20056;-75
2023/11/28 07:18:43;;;;;;;41.38;21.42;;;-2.80;99.90;;;;;;5076148;28;20040;-75
2023/11/28 07:21:12;;;;;;;45.83;21.70;;;-2.80;99.90;;;;;;5069892;28;20033;-75
2023/11/28 07:23:38;;;;;;;39.50;19.33;;;-2.80;99.90;;;;;;5071266;28;20068;-75
2023/11/28 07:26:07;;;;;;;44.78;22.13;;;-2.80;99.90;;;;;;5066207;28;20051;-75
2023/11/28 07:28:36;;;;;;;45.55;22.42;;;-2.70;99.90;;;;;;5065834;28;20127;-75
2023/11/28 07:31:02;;;;;;;47.78;23.27;;;-2.70;99.90;;;;;;5066366;28;20473;-74
2023/11/28 07:33:28;;;;;;;45.05;23.58;;;-2.60;99.90;;;;;;5069678;28;20055;-75
2023/11/28 07:35:57;;;;;;;36.58;18.73;;;-2.60;99.90;;;;;;5073384;28;20361;-79
2023/11/28 07:38:24;;;;;;;47.28;21.75;;;-2.60;99.90;;;;;;5068444;28;20020;-79
2023/11/28 07:40:53;;;;;;;45.80;21.70;;;-2.60;99.90;;;;;;5072606;28;20024;-74
2023/11/28 07:43:18;;;;;;;40.67;22.17;;;-2.60;99.90;;;;;;5065540;28;20025;-75
2023/11/28 07:45:45;;;;;;;42.83;21.42;;;-2.50;99.90;;;;;;5073065;28;20028;-74
2023/11/28 07:48:12;;;;;;;44.42;21.90;;;-2.50;99.90;;;;;;5072571;28;20027;-75
2023/11/28 07:50:38;;;;;;;43.90;22.58;;;-2.40;99.90;;;;;;5072319;28;20037;-74
2023/11/28 07:53:05;;;;;;;43.63;21.67;;;-2.40;99.90;;;;;;5073925;28;20020;-79
2023/11/28 07:55:31;;;;;;;36.38;18.20;;;-2.40;99.90;;;;;;5076796;28;20039;-79
2023/11/28 07:57:57;;;;;;;41.75;22.52;;;-2.40;99.90;;;;;;5073550;28;20020;-79
2023/11/28 08:00:23;;;;;;;41.22;19.48;;;-2.40;99.90;;;;;;5073524;28;20119;-79
2023/11/28 08:02:49;;;;;;;38.92;20.33;;;-2.40;99.90;;;;;;5074077;28;20028;-79
2023/11/28 08:05:15;;;;;;;37.38;21.30;;;-2.30;99.90;;;;;;5073331;28;20470;-79
2023/11/28 08:07:40;;;;;;;41.88;21.33;;;-2.30;99.90;;;;;;5072165;28;20027;-79
2023/11/28 08:10:10;;;;;;;37.58;17.38;;;-2.30;99.90;;;;;;5073098;28;20021;-78
2023/11/28 08:12:36;;;;;;;41.40;22.67;;;-2.30;99.90;;;;;;5073264;28;20052;-79
2023/11/28 08:15:02;;;;;;;42.88;20.73;;;-2.20;99.90;;;;;;5073653;28;20048;-78
2023/11/28 08:17:27;;;;;;;42.30;20.83;;;-2.20;99.90;;;;;;5071638;28;20028;-79
2023/11/28 08:19:53;;;;;;;44.60;23.25;;;-2.20;99.90;;;;;;5070471;28;21530;-78
2023/11/28 08:22:19;;;;;;;37.45;19.77;;;-2.20;99.90;;;;;;5072256;28;20508;-79
2023/11/28 08:24:45;;;;;;;41.42;20.05;;;-2.10;99.90;;;;;;5068813;28;20040;-78
2023/11/28 08:27:11;;;;;;;32.97;17.17;;;-2.10;99.90;;;;;;5070360;28;20463;-79
2023/11/28 08:29:36;;;;;;;38.63;17.50;;;-2.10;99.90;;;;;;5068060;28;20028;-79
2023/11/28 08:32:02;;;;;;;44.05;21.92;;;-2.10;99.90;;;;;;5069641;28;20387;-75
2023/11/28 08:34:28;;;;;;;36.38;18.13;;;-2.00;99.90;;;;;;5068593;28;20405;-78
2023/11/28 08:36:53;;;;;;;38.80;19.27;;;-2.00;99.90;;;;;;5068081;28;20525;-75
2023/11/28 08:39:19;;;;;;;37.97;19.13;;;-1.90;99.90;;;;;;5067762;28;20032;-75
2023/11/28 08:41:45;;;;;;;37.70;20.13;;;-1.90;99.90;;;;;;5070656;28;20017;-75
2023/11/28 08:44:10;;;;;;;35.28;17.85;;;-1.80;99.90;;;;;;5070349;28;20029;-75
2023/11/28 08:46:37;;;;;;;31.83;19.38;;;-1.80;99.90;;;;;;5070460;28;20020;-78
2023/11/28 08:49:04;;;;;;;37.38;18.60;;;-1.80;99.90;;;;;;5069296;28;20437;-75
2023/11/28 08:51:30;;;;;;;33.15;16.63;;;-1.70;99.90;;;;;;5070967;28;20027;-78
2023/11/28 08:53:56;;;;;;;35.42;17.88;;;-1.60;99.90;;;;;;5073410;28;20017;-79
2023/11/28 08:56:23;;;;;;;32.38;16.92;;;-1.70;99.90;;;;;;5073220;28;20021;-78
2023/11/28 08:58:49;;;;;;;35.33;18.77;;;-1.60;99.90;;;;;;5073063;28;20486;-75
2023/11/28 09:01:15;;;;;;;32.58;17.45;;;-1.60;99.90;;;;;;5064962;28;20032;-75
2023/11/28 09:03:41;;;;;;;33.33;16.45;;;-1.60;99.90;;;;;;5072585;28;20098;-78
2023/11/28 09:06:07;;;;;;;35.22;18.20;;;-1.50;99.90;;;;;;5071788;28;20074;-75
2023/11/28 09:08:33;;;;;;;34.10;18.13;;;-1.50;99.90;;;;;;5072844;28;20036;-75
2023/11/28 09:10:59;;;;;;;31.45;17.45;;;-1.50;99.90;;;;;;5073163;28;20064;-78
2023/11/28 09:13:24;;;;;;;33.75;18.15;;;-1.60;99.90;;;;;;5074254;28;20063;-75
2023/11/28 09:15:50;;;;;;;37.55;17.90;;;-1.50;99.90;;;;;;5079541;28;20029;-79
2023/11/28 09:18:16;;;;;;;37.58;17.95;;;-1.50;99.90;;;;;;5077703;28;20025;-75
2023/11/28 09:20:42;;;;;;;41.03;19.13;;;-1.50;99.90;;;;;;5071832;28;20563;-75
2023/11/28 09:23:07;;;;;;;38.08;19.38;;;-1.40;99.90;;;;;;5071554;28;20013;-75
2023/11/28 09:25:33;;;;;;;29.33;17.15;;;-1.40;99.90;;;;;;5073007;28;20389;-78
2023/11/28 09:27:59;;;;;;;30.98;16.63;;;-1.40;99.90;;;;;;5072746;28;20028;-75
2023/11/28 09:30:24;;;;;;;29.70;17.60;;;-1.40;99.90;;;;;;5071635;28;20024;-78
2023/11/28 09:32:51;;;;;;;34.55;17.13;;;-1.40;99.90;;;;;;5072305;28;20097;-78
2023/11/28 09:35:17;;;;;;;32.55;18.45;;;-1.40;99.90;;;;;;5065499;28;20021;-76
2023/11/28 09:37:43;;;;;;;29.60;16.52;;;-1.40;99.90;;;;;;5070445;28;20074;-75
2023/11/28 09:40:09;;;;;;;30.67;17.95;;;-1.30;99.90;;;;;;5072706;28;20029;-79
2023/11/28 09:42:38;;;;;;;32.10;18.38;;;-1.30;99.90;;;;;;5072435;28;20021;-75
2023/11/28 09:45:05;;;;;;;32.05;18.02;;;-1.30;99.90;;;;;;5071262;28;20390;-78
2023/11/28 09:47:35;;;;;;;34.45;18.15;;;-1.30;99.90;;;;;;5072704;28;20229;-75
2023/11/28 09:50:03;;;;;;;31.38;18.48;;;-1.30;99.90;;;;;;5072515;28;20104;-78
2023/11/28 09:52:32;;;;;;;33.40;16.88;;;-1.30;99.90;;;;;;5071321;28;20063;-75
2023/11/28 09:55:00;;;;;;;30.10;17.38;;;-1.40;99.90;;;;;;5071140;28;20112;-78
2023/11/28 09:57:34;;;;;;;30.10;17.08;;;-1.40;99.90;;;;;;5072617;28;20028;-78
2023/11/28 10:00:01;;;;;;;38.75;19.17;;;-1.30;99.90;;;;;;5072085;28;20033;-78
2023/11/28 10:02:30;;;;;;;39.38;18.40;;;-1.30;99.90;;;;;;5062538;28;20036;-78
2023/11/28 10:04:56;;;;;;;33.72;17.58;;;-1.40;99.90;;;;;;5053412;28;20075;-76
2023/11/28 10:07:30;;;;;;;32.72;17.05;;;-1.40;99.90;;;;;;5060204;28;20025;-75
2023/11/28 10:09:59;;;;;;;34.75;17.63;;;-1.30;99.90;;;;;;5070959;28;20363;-78
2023/11/28 10:12:25;;;;;;;34.10;17.52;;;-1.40;99.90;;;;;;5071035;28;20024;-78
2023/11/28 10:14:50;;;;;;;32.88;18.27;;;-1.30;99.90;;;;;;5075880;28;20401;-75
2023/11/28 10:17:16;;;;;;;26.25;15.27;;;-1.30;99.90;;;;;;5074906;28;20020;-79
2023/11/28 10:19:46;;;;;;;31.80;17.95;;;-1.30;99.90;;;;;;5074765;28;20024;-75
2023/11/28 10:22:13;;;;;;;27.52;15.65;;;-1.30;99.90;;;;;;5074845;28;20028;-78
2023/11/28 10:24:39;;;;;;;31.90;16.92;;;-1.40;99.90;;;;;;5074976;28;20012;-75
2023/11/28 10:27:05;;;;;;;31.60;17.63;;;-1.40;99.90;;;;;;5076191;28;20031;-75
2023/11/28 10:29:32;;;;;;;30.65;17.27;;;-1.30;99.90;;;;;;5074844;28;20024;-78
2023/11/28 10:31:59;;;;;;;30.00;16.63;;;-1.30;99.90;;;;;;5076048;28;20059;-78
2023/11/28 10:34:26;;;;;;;28.38;18.13;;;-1.30;99.90;;;;;;5074662;28;20078;-78
2023/11/28 10:36:51;;;;;;;30.13;14.43;;;-1.20;99.90;;;;;;5075998;28;20031;-78
2023/11/28 10:39:20;;;;;;;25.00;13.75;;;-1.20;99.90;;;;;;5075873;28;20029;-75
2023/11/28 10:41:45;;;;;;;30.73;15.68;;;-1.30;99.90;;;;;;5076118;28;20027;-75
2023/11/28 10:44:11;;;;;;;23.60;14.90;;;-1.30;99.90;;;;;;5074852;28;20029;-76
2023/11/28 10:46:39;;;;;;;26.70;14.55;;;-1.30;99.90;;;;;;5080060;28;20020;-74
2023/11/28 10:49:05;;;;;;;20.73;12.48;;;-1.20;99.90;;;;;;5075683;28;20016;-73
2023/11/28 10:51:32;;;;;;;28.08;15.75;;;-1.20;99.90;;;;;;5069495;28;20463;-73
2023/11/28 10:54:08;;;;;;;25.10;14.93;;;-1.10;99.90;;;;;;5075146;28;20016;-77
2023/11/28 10:56:47;;;;;;;25.88;14.95;;;-1.10;99.90;;;;;;5075256;28;20013;-77
2023/11/28 10:59:22;;;;;;;30.33;16.40;;;-1.00;99.90;;;;;;5075658;28;20036;-73
2023/11/28 11:01:49;;;;;;;31.58;16.25;;;-1.00;99.90;;;;;;5075298;28;20405;-77
2023/11/28 11:04:15;;;;;;;29.02;15.13;;;-1.00;99.90;;;;;;5075357;28;20478;-77
2023/11/28 11:06:40;;;;;;;29.48;15.55;;;-1.00;99.90;;;;;;5062660;28;20019;-77
2023/11/28 11:09:09;;;;;;;29.48;15.52;;;-1.00;99.90;;;;;;5075595;28;20390;-73
2023/11/28 11:11:36;;;;;;;26.17;15.43;;;-1.00;99.90;;;;;;5073871;28;20053;-73
2023/11/28 11:14:17;;;;;;;28.33;15.65;;;-1.00;99.90;;;;;;5075486;28;20039;-77
2023/11/28 11:16:50;;;;;;;26.83;14.65;;;-0.90;99.90;;;;;;5075344;28;20024;-74
2023/11/28 11:19:17;;;;;;;27.20;15.70;;;-0.90;99.90;;;;;;5073309;28;20040;-74
2023/11/28 11:21:51;;;;;;;27.85;16.35;;;-0.80;99.90;;;;;;5074904;28;20013;-77
2023/11/28 11:24:19;;;;;;;30.15;17.77;;;-0.80;99.90;;;;;;5074497;28;20031;-77
2023/11/28 11:26:46;;;;;;;28.23;16.70;;;-0.90;99.90;;;;;;5066560;28;20037;-77
2023/11/28 11:29:24;;;;;;;33.55;18.25;;;-0.90;99.90;;;;;;5066700;28;20028;-77
2023/11/28 11:31:56;;;;;;;30.23;15.95;;;-0.90;99.90;;;;;;5070030;28;20043;-77
2023/11/28 11:34:42;;;;;;;26.67;15.48;;;-0.90;99.90;;;;;;5073231;28;20513;-77
2023/11/28 11:37:17;;;;;;;26.85;15.07;;;-1.00;99.90;;;;;;5070606;28;20099;-77
2023/11/28 11:39:52;;;;;;;25.40;15.00;;;-1.00;99.90;;;;;;5065460;28;20032;-74
2023/11/28 11:42:23;;;;;;;30.00;16.50;;;-1.00;99.90;;;;;;5066720;28;20535;-74
2023/11/28 11:44:55;;;;;;;34.75;15.75;;;-1.00;99.90;;;;;;5075447;28;20021;-74
2023/11/28 11:47:24;;;;;;;32.88;16.35;;;-1.00;99.90;;;;;;5071386;28;20438;-74
2023/11/28 11:49:51;;;;;;;26.92;14.70;;;-1.00;99.90;;;;;;5072994;28;20016;-74
2023/11/28 11:52:19;;;;;;;25.30;13.80;;;-1.10;99.90;;;;;;5070958;28;20033;-74
2023/11/28 11:54:46;;;;;;;23.38;14.02;;;-1.10;99.90;;;;;;5072755;28;20395;-74
2023/11/28 11:57:13;;;;;;;27.98;15.02;;;-1.00;99.90;;;;;;5071781;28;20017;-73
2023/11/28 11:59:41;;;;;;;29.65;15.98;;;-1.10;99.90;;;;;;5069487;28;20116;-74
2023/11/28 12:02:08;;;;;;;27.60;15.65;;;-1.00;99.90;;;;;;5069494;28;20064;-74
2023/11/28 12:04:43;;;;;;;25.27;15.38;;;-1.00;99.90;;;;;;5070315;28;20017;-74
2023/11/28 12:07:10;;;;;;;22.75;14.90;;;-1.10;99.90;;;;;;5062625;28;20054;-74
2023/11/28 12:09:36;;;;;;;27.45;14.77;;;-1.10;99.90;;;;;;5072592;28;20013;-73
2023/11/28 12:12:04;;;;;;;29.38;15.90;;;-1.10;99.90;;;;;;5074014;28;20020;-74
2023/11/28 12:14:31;;;;;;;25.88;15.45;;;-1.00;99.90;;;;;;5071295;28;20025;-74
2023/11/28 12:16:57;;;;;;;28.33;15.07;;;-1.00;99.90;;;;;;5072295;28;20024;-74
2023/11/28 12:19:24;;;;;;;22.80;14.73;;;-1.10;99.90;;;;;;5072614;28;20037;-73
2023/11/28 12:21:49;;;;;;;27.75;15.40;;;-1.10;99.90;;;;;;5065906;28;20494;-74
2023/11/28 12:24:15;;;;;;;32.85;18.75;;;-1.10;99.90;;;;;;5073491;28;20017;-73
2023/11/28 12:26:41;;;;;;;29.15;15.57;;;-1.10;99.90;;;;;;5072975;28;20513;-73